createdAt,value
2022-12-03T00:02:59.325Z,9.13
2022-12-03T00:06:22.362Z,9.43
2022-12-03T00:09:45.247Z,10.18
2022-12-03T00:13:08.245Z,9.85
2022-12-03T00:16:31.614Z,9.10
2022-12-03T00:19:55.915Z,10.50
2022-12-03T00:23:18.847Z,9.25
2022-12-03T00:26:41.773Z,9.20
2022-12-03T00:30:05.601Z,9.07
2022-12-03T00:33:28.668Z,9.00
2022-12-03T00:36:52.975Z,9.35
2022-12-03T00:40:16.141Z,8.68
2022-12-03T00:43:39.073Z,8.95
2022-12-03T00:47:02.034Z,9.45
2022-12-03T00:50:24.978Z,9.63
2022-12-03T00:53:49.401Z,9.00
2022-12-03T00:57:12.387Z,8.27
2022-12-03T01:00:36.961Z,9.77
2022-12-03T01:03:59.991Z,8.82
2022-12-03T01:07:22.939Z,9.13
2022-12-03T01:10:47.203Z,9.07
2022-12-03T01:14:12.769Z,8.88
2022-12-03T01:17:35.725Z,7.90
2022-12-03T01:20:58.612Z,9.10
2022-12-03T01:24:21.661Z,9.57
2022-12-03T01:27:45.928Z,9.45
2022-12-03T01:31:26.770Z,8.52
2022-12-03T01:34:52.623Z,8.50
2022-12-03T01:38:15.825Z,9.52
2022-12-03T01:41:39.423Z,10.13
2022-12-03T01:45:04.671Z,8.57
2022-12-03T01:48:28.632Z,8.45
2022-12-03T01:51:53.564Z,7.90
2022-12-03T01:55:19.163Z,8.18
2022-12-03T01:58:42.857Z,7.80
2022-12-03T02:02:13.985Z,7.40
2022-12-03T02:05:38.483Z,8.02
2022-12-03T02:09:01.402Z,7.75
2022-12-03T02:12:31.944Z,7.50
2022-12-03T02:15:54.922Z,7.22
2022-12-03T02:19:25.512Z,8.18
2022-12-03T02:22:56.869Z,7.75
2022-12-03T02:26:21.238Z,8.68
2022-12-03T02:29:44.493Z,7.13
2022-12-03T02:33:07.444Z,7.85
2022-12-03T02:36:30.385Z,6.93
2022-12-03T02:39:55.978Z,8.90
2022-12-03T02:43:21.246Z,7.95
2022-12-03T02:46:44.186Z,7.40
2022-12-03T02:50:08.938Z,7.40
2022-12-03T02:53:36.763Z,7.95
2022-12-03T02:56:59.740Z,7.25
2022-12-03T03:00:24.633Z,7.05
2022-12-03T03:03:49.247Z,9.52
2022-12-03T03:07:12.451Z,7.50
2022-12-03T03:10:37.906Z,8.68
2022-12-03T03:14:02.200Z,7.20
2022-12-03T03:17:26.576Z,7.10
2022-12-03T03:20:49.670Z,7.22
2022-12-03T03:24:12.694Z,7.22
2022-12-03T03:27:36.191Z,6.47
2022-12-03T03:31:00.564Z,6.68
2022-12-03T03:34:25.155Z,7.82
2022-12-03T03:37:48.143Z,7.63
2022-12-03T03:41:13.623Z,6.50
2022-12-03T03:44:37.095Z,6.32
2022-12-03T03:48:01.147Z,7.03
2022-12-03T03:51:25.694Z,6.70
2022-12-03T03:54:48.903Z,7.13
2022-12-03T03:58:12.232Z,6.30
2022-12-03T04:01:35.414Z,5.93
2022-12-03T04:04:58.456Z,5.55
2022-12-03T04:08:22.716Z,6.88
2022-12-03T04:12:03.080Z,6.45
2022-12-03T04:15:26.516Z,6.50
2022-12-03T04:18:49.413Z,6.07
2022-12-03T04:22:41.510Z,7.68
2022-12-03T04:26:38.429Z,7.30
2022-12-03T04:30:01.383Z,6.22
2022-12-03T04:33:41.901Z,5.57
2022-12-03T04:37:05.469Z,7.05
2022-12-03T04:40:45.808Z,6.93
2022-12-03T04:44:27.440Z,7.30
2022-12-03T04:47:50.367Z,7.70
2022-12-03T04:51:13.303Z,6.25
2022-12-03T04:54:40.695Z,6.30
2022-12-03T04:58:03.706Z,6.05
2022-12-03T05:01:27.996Z,5.78
2022-12-03T05:04:51.296Z,5.32
2022-12-03T05:08:14.383Z,6.10
2022-12-03T05:11:37.614Z,5.95
2022-12-03T05:15:00.691Z,6.43
2022-12-03T05:18:24.924Z,5.95
2022-12-03T05:21:47.812Z,5.85
2022-12-03T05:25:11.216Z,6.88
2022-12-03T05:28:34.100Z,5.78
2022-12-03T05:31:57.056Z,5.53
2022-12-03T05:35:21.464Z,5.75
2022-12-03T05:38:44.355Z,6.70
2022-12-03T05:42:25.014Z,6.05
2022-12-03T05:45:47.923Z,5.80
2022-12-03T05:49:10.817Z,6.53
2022-12-03T05:52:35.175Z,5.03
2022-12-03T05:55:58.057Z,6.10
2022-12-03T05:59:21.213Z,5.43
2022-12-03T06:02:44.901Z,5.88
2022-12-03T06:06:08.511Z,5.38
2022-12-03T06:09:32.720Z,6.10
2022-12-03T06:12:55.920Z,5.20
2022-12-03T06:16:18.919Z,6.03
2022-12-03T06:19:41.869Z,6.10
2022-12-03T06:23:04.866Z,5.93
2022-12-03T06:26:30.008Z,6.65
2022-12-03T06:29:52.979Z,5.55
2022-12-03T06:33:16.040Z,7.28
2022-12-03T06:36:39.293Z,5.60
2022-12-03T06:40:02.281Z,5.50
2022-12-03T06:43:26.560Z,6.30
2022-12-03T06:46:49.578Z,7.25
2022-12-03T06:50:13.642Z,6.78
2022-12-03T06:53:36.576Z,6.15
2022-12-03T06:57:00.207Z,6.28
2022-12-03T07:00:25.301Z,6.13
2022-12-03T07:03:48.511Z,6.30
2022-12-03T07:07:11.414Z,5.93
2022-12-03T07:10:35.284Z,6.43
2022-12-03T07:14:03.185Z,5.35
2022-12-03T07:17:29.749Z,5.78
2022-12-03T07:20:52.622Z,6.63
2022-12-03T07:24:16.132Z,6.18
2022-12-03T07:27:39.049Z,6.55
2022-12-03T07:31:02.036Z,6.05
2022-12-03T07:34:26.763Z,6.72
2022-12-03T07:37:49.713Z,5.28
2022-12-03T07:41:12.640Z,5.30
2022-12-03T07:44:35.580Z,5.95
2022-12-03T07:47:58.517Z,6.28
2022-12-03T07:51:25.142Z,5.68
2022-12-03T07:54:52.198Z,5.97
2022-12-03T07:58:15.484Z,5.10
2022-12-03T08:01:38.621Z,7.28
2022-12-03T08:05:01.747Z,6.15
2022-12-03T08:08:26.037Z,5.95
2022-12-03T08:11:50.455Z,6.57
2022-12-03T08:15:15.716Z,5.45
2022-12-03T08:18:38.689Z,5.95
2022-12-03T08:22:01.954Z,5.30
2022-12-03T08:25:29.031Z,5.40
2022-12-03T08:28:52.438Z,5.40
2022-12-03T08:32:15.455Z,6.40
2022-12-03T08:35:38.436Z,5.43
2022-12-03T08:39:15.639Z,5.45
2022-12-03T08:42:42.873Z,6.05
2022-12-03T08:46:06.068Z,5.55
2022-12-03T08:49:29.058Z,6.15
2022-12-03T08:52:54.930Z,5.07
2022-12-03T08:56:23.593Z,5.45
2022-12-03T08:59:47.926Z,5.82
2022-12-03T09:03:16.871Z,6.72
2022-12-03T09:06:39.801Z,6.43
2022-12-03T09:10:02.757Z,6.63
2022-12-03T09:13:25.708Z,6.13
2022-12-03T09:16:50.504Z,5.25
2022-12-03T09:20:13.886Z,7.45
2022-12-03T09:23:36.817Z,6.55
2022-12-03T09:26:59.741Z,6.47
2022-12-03T09:30:22.777Z,7.40
2022-12-03T09:33:47.169Z,6.30
2022-12-03T09:37:10.238Z,6.25
2022-12-03T09:40:35.407Z,7.25
2022-12-03T09:44:08.599Z,6.97
2022-12-03T09:47:34.036Z,6.53
2022-12-03T09:50:58.404Z,6.72
2022-12-03T09:54:25.020Z,6.55
2022-12-03T09:57:48.183Z,5.80
2022-12-03T10:01:14.824Z,6.43
2022-12-03T10:04:37.981Z,6.70
2022-12-03T10:08:07.613Z,6.50
2022-12-03T10:11:32.443Z,13.45
2022-12-03T10:14:56.535Z,16.33
2022-12-03T10:18:22.866Z,15.32
2022-12-03T10:21:45.824Z,13.70
2022-12-03T10:25:12.709Z,13.15
2022-12-03T10:28:38.492Z,14.40
2022-12-03T10:32:03.276Z,12.15
2022-12-03T10:35:38.493Z,12.05
2022-12-03T10:39:09.479Z,11.65
2022-12-03T10:42:35.397Z,10.10
2022-12-03T10:46:20.628Z,9.70
2022-12-03T10:50:03.872Z,10.43
2022-12-03T10:53:29.638Z,8.65
2022-12-03T10:56:53.672Z,9.43
2022-12-03T11:00:22.722Z,8.07
2022-12-03T11:03:46.786Z,8.32
2022-12-03T11:07:16.025Z,8.23
2022-12-03T11:10:38.951Z,7.53
2022-12-03T11:14:05.596Z,7.78
2022-12-03T11:17:44.770Z,7.30
2022-12-03T11:21:09.423Z,7.85
2022-12-03T11:24:33.285Z,7.82
2022-12-03T11:28:29.547Z,7.85
2022-12-03T11:31:55.215Z,7.38
2022-12-03T11:35:29.249Z,7.40
2022-12-03T11:38:54.714Z,6.82
2022-12-03T11:42:38.950Z,8.63
2022-12-03T11:46:09.549Z,7.13
2022-12-03T11:49:36.475Z,7.03
2022-12-03T11:53:03.798Z,6.80
2022-12-03T11:56:29.134Z,7.10
2022-12-03T12:00:04.519Z,6.75
2022-12-03T12:03:36.826Z,7.47
2022-12-03T12:07:00.207Z,8.23
2022-12-03T12:10:45.578Z,8.93
2022-12-03T12:14:09.802Z,7.32
2022-12-03T12:17:34.972Z,6.93
2022-12-03T12:21:36.445Z,7.45
2022-12-03T12:25:00.816Z,8.80
2022-12-03T12:28:25.206Z,7.95
2022-12-03T12:31:53.733Z,6.65
2022-12-03T12:35:20.205Z,7.15
2022-12-03T12:38:43.149Z,7.25
2022-12-03T12:42:23.875Z,7.97
2022-12-03T12:45:48.222Z,7.57
2022-12-03T12:49:13.022Z,8.35
2022-12-03T12:52:36.397Z,9.15
2022-12-03T12:56:01.085Z,9.15
2022-12-03T12:59:24.529Z,9.95
2022-12-03T13:02:53.067Z,12.50
2022-12-03T13:06:17.732Z,17.98
2022-12-03T13:09:40.798Z,16.35
2022-12-03T13:13:19.180Z,16.80
2022-12-03T13:16:42.171Z,20.92
2022-12-03T13:20:18.820Z,22.90
2022-12-03T13:23:41.861Z,22.98
2022-12-03T13:27:22.955Z,22.02
2022-12-03T13:30:46.011Z,17.88
2022-12-03T13:34:17.223Z,18.42
2022-12-03T13:37:47.708Z,16.75
2022-12-03T13:41:37.022Z,17.05
2022-12-03T13:45:02.486Z,16.73
2022-12-03T13:48:28.659Z,14.30
2022-12-03T13:51:52.198Z,14.23
2022-12-03T13:55:24.520Z,14.93
2022-12-03T13:58:47.468Z,14.65
2022-12-03T14:02:11.589Z,14.00
2022-12-03T14:05:34.584Z,13.32
2022-12-03T14:08:57.570Z,11.82
2022-12-03T14:12:28.851Z,12.88
2022-12-03T14:15:51.745Z,13.60
2022-12-03T14:19:15.042Z,13.40
2022-12-03T14:22:39.041Z,11.48
2022-12-03T14:26:01.993Z,11.77
2022-12-03T14:29:26.256Z,10.50
2022-12-03T14:32:49.200Z,11.73
2022-12-03T14:36:12.084Z,11.07
2022-12-03T14:39:35.024Z,10.65
2022-12-03T14:42:57.910Z,12.65
2022-12-03T14:46:22.305Z,10.30
2022-12-03T14:49:45.369Z,10.95
2022-12-03T14:53:08.267Z,10.63
2022-12-03T14:56:31.157Z,9.52
2022-12-03T14:59:54.800Z,9.50
2022-12-03T15:03:19.220Z,10.32
2022-12-03T15:06:42.207Z,10.60
2022-12-03T15:10:06.108Z,9.75
2022-12-03T15:13:29.197Z,10.85
2022-12-03T15:16:52.256Z,11.02
2022-12-03T15:20:16.745Z,8.40
2022-12-03T15:23:39.870Z,10.55
2022-12-03T15:27:02.880Z,11.70
2022-12-03T15:30:25.934Z,10.30
2022-12-03T15:33:48.848Z,12.13
2022-12-03T15:37:14.742Z,9.70
2022-12-03T15:40:38.604Z,9.55
2022-12-03T15:44:02.522Z,9.95
2022-12-03T15:47:25.760Z,9.80
2022-12-03T15:50:48.704Z,10.27
2022-12-03T15:54:13.135Z,10.27
2022-12-03T15:57:36.028Z,9.27
2022-12-03T16:00:59.131Z,11.05
2022-12-03T16:04:22.186Z,10.93
2022-12-03T16:07:45.168Z,10.60
2022-12-03T16:11:09.915Z,12.90
2022-12-03T16:14:33.301Z,10.57
2022-12-03T16:17:56.210Z,12.30
2022-12-03T16:21:23.509Z,11.85
2022-12-03T16:24:49.341Z,11.02
2022-12-03T16:28:13.656Z,13.32
2022-12-03T16:31:36.600Z,12.48
2022-12-03T16:34:59.602Z,12.85
2022-12-03T16:38:22.492Z,12.52
2022-12-03T16:41:45.484Z,16.02
2022-12-03T16:45:50.985Z,14.90
2022-12-03T16:49:14.027Z,19.10
2022-12-03T16:52:36.967Z,21.05
2022-12-03T16:55:59.864Z,24.83
2022-12-03T16:59:22.887Z,23.83
2022-12-03T17:02:47.203Z,21.13
2022-12-03T17:06:10.144Z,20.52
2022-12-03T17:09:33.171Z,21.40
2022-12-03T17:13:11.531Z,21.63
2022-12-03T17:16:34.533Z,22.00
2022-12-03T17:19:58.916Z,23.23
2022-12-03T17:23:21.917Z,22.67
2022-12-03T17:26:45.533Z,22.55
2022-12-03T17:30:09.418Z,25.27
2022-12-03T17:33:32.440Z,23.70
2022-12-03T17:36:56.703Z,28.02
2022-12-03T17:40:19.776Z,28.15
2022-12-03T17:43:42.650Z,26.27
2022-12-03T17:47:05.772Z,27.50
2022-12-03T17:50:28.771Z,28.30
2022-12-03T17:53:53.121Z,26.33
2022-12-03T17:57:16.367Z,26.08
2022-12-03T18:00:39.321Z,28.95
2022-12-03T18:04:02.715Z,26.90
2022-12-03T18:07:25.865Z,25.73
2022-12-03T18:10:50.154Z,27.23
2022-12-03T18:14:13.691Z,25.83
2022-12-03T18:17:37.001Z,25.98
2022-12-03T18:21:02.139Z,26.95
2022-12-03T18:24:26.016Z,25.27
2022-12-03T18:27:50.373Z,26.63
2022-12-03T18:31:16.275Z,27.27
2022-12-03T18:34:39.358Z,26.27
2022-12-03T18:38:02.561Z,25.77
2022-12-03T18:41:26.234Z,24.42
2022-12-03T18:44:52.156Z,25.05
2022-12-03T18:48:16.375Z,24.50
2022-12-03T18:51:39.552Z,23.88
2022-12-03T18:55:02.789Z,23.13
2022-12-03T18:58:25.715Z,24.20
2022-12-03T19:01:50.088Z,24.15
2022-12-03T19:05:13.097Z,23.70
2022-12-03T19:08:36.687Z,23.25
2022-12-03T19:11:59.606Z,22.73
2022-12-03T19:15:22.794Z,23.65
2022-12-03T19:18:48.187Z,23.15
2022-12-03T19:22:11.215Z,23.40
2022-12-03T19:25:34.455Z,23.45
2022-12-03T19:28:57.890Z,25.13
2022-12-03T19:32:21.027Z,25.60
2022-12-03T19:35:45.696Z,26.38
2022-12-03T19:39:09.014Z,24.95
2022-12-03T19:42:32.014Z,24.23
2022-12-03T19:45:55.333Z,26.13
2022-12-03T19:49:21.103Z,25.65
2022-12-03T19:52:46.179Z,24.80
2022-12-03T19:56:11.514Z,24.20
2022-12-03T19:59:34.533Z,26.05
2022-12-03T20:02:57.513Z,23.45
2022-12-03T20:06:23.026Z,23.77
2022-12-03T20:09:47.489Z,24.13
2022-12-03T20:13:10.617Z,23.58
2022-12-03T20:16:34.530Z,23.85
2022-12-03T20:19:57.807Z,23.50
2022-12-03T20:23:20.932Z,22.23
2022-12-03T20:26:45.470Z,23.73
2022-12-03T20:30:09.612Z,22.45
2022-12-03T20:33:32.706Z,21.02
2022-12-03T20:36:56.226Z,22.80
2022-12-03T20:40:19.400Z,19.75
2022-12-03T20:43:43.852Z,20.80
2022-12-03T20:47:07.117Z,19.45
2022-12-03T20:50:30.218Z,20.65
2022-12-03T20:53:53.813Z,20.38
2022-12-03T20:57:16.946Z,20.90
2022-12-03T21:00:41.191Z,21.42
2022-12-03T21:04:04.621Z,20.30
2022-12-03T21:07:27.671Z,19.48
2022-12-03T21:10:50.568Z,18.83
2022-12-03T21:14:13.541Z,19.48
2022-12-03T21:17:38.246Z,19.83
2022-12-03T21:21:02.899Z,19.27
2022-12-03T21:24:26.156Z,18.88
2022-12-03T21:27:49.211Z,20.13
2022-12-03T21:31:14.687Z,18.67
2022-12-03T21:34:39.065Z,17.35
2022-12-03T21:38:02.071Z,18.48
2022-12-03T21:41:24.983Z,17.40
2022-12-03T21:44:47.906Z,17.80
2022-12-03T21:48:11.073Z,17.33
2022-12-03T21:51:35.548Z,17.67
2022-12-03T21:54:58.483Z,18.20
2022-12-03T21:58:21.458Z,15.85
2022-12-03T22:01:47.265Z,16.38
2022-12-03T22:05:11.604Z,16.05
2022-12-03T22:08:36.024Z,16.85
2022-12-03T22:12:00.712Z,15.50
2022-12-03T22:15:23.725Z,15.43
2022-12-03T22:18:46.663Z,14.50
2022-12-03T22:22:09.595Z,15.38
2022-12-03T22:25:34.067Z,15.48
2022-12-03T22:28:57.077Z,14.70
2022-12-03T22:32:20.123Z,14.75
2022-12-03T22:35:44.424Z,15.57
2022-12-03T22:39:08.123Z,17.02
2022-12-03T22:42:32.701Z,14.70
2022-12-03T22:45:56.517Z,16.30
2022-12-03T22:49:19.516Z,15.30
2022-12-03T22:52:42.420Z,15.88
2022-12-03T22:56:05.535Z,16.10
2022-12-03T22:59:29.877Z,15.90
2022-12-03T23:02:52.858Z,16.63
2022-12-03T23:06:16.070Z,15.43
2022-12-03T23:09:39.076Z,13.95
2022-12-03T23:13:02.245Z,14.57
2022-12-03T23:16:28.880Z,15.55
2022-12-03T23:19:52.148Z,15.13
2022-12-03T23:23:15.681Z,14.52
2022-12-03T23:26:39.515Z,15.02
2022-12-03T23:30:02.504Z,13.52
2022-12-03T23:33:27.293Z,13.93
2022-12-03T23:36:50.193Z,14.10
2022-12-03T23:40:14.186Z,12.88
2022-12-03T23:43:37.108Z,13.48
2022-12-03T23:47:00.969Z,13.65
2022-12-03T23:50:25.500Z,13.60
2022-12-03T23:53:48.871Z,13.82
2022-12-03T23:57:12.553Z,12.02
